Terminal Aerodrome Forecast
Issued by NWS

Home | Current Version | Previous Version | Text Only | Print | Product List | Glossary On
Versions: 1 2 3 4 5 6 7 8 9 10 11 12 13 14
000
FTUS43 KGLD 201700
TAFMCK
TAF
KMCK 201720Z 2018/2118 VRB05KT P6SM BKN120
     FM202000 VRB05KT P6SM VCSH BKN035
     FM210200 VRB05KT P6SM BKN090
     FM211000 36015G25KT P6SM SCT120=

USA.gov is the U.S. government's official web portal to all federal, state and local government web resources and services.